sensor_id;sensor_type;location;lat;lon;timestamp;temperature;humidity
44037;DHT22;62488;-37.670;-63.532;2023-04-25T00:01:41;15.60;99.90
44037;DHT22;62488;-37.670;-63.532;2023-04-25T00:04:08;15.60;99.90
44037;DHT22;62488;-37.670;-63.532;2023-04-25T00:06:35;15.60;99.90
44037;DHT22;62488;-37.670;-63.532;2023-04-25T00:09:04;15.60;99.90
44037;DHT22;62488;-37.670;-63.532;2023-04-25T00:11:34;15.50;99.90
44037;DHT22;62488;-37.670;-63.532;2023-04-25T00:14:01;15.50;99.90
44037;DHT22;62488;-37.670;-63.532;2023-04-25T00:16:29;15.50;99.90
44037;DHT22;62488;-37.670;-63.532;2023-04-25T00:18:59;15.50;99.90
44037;DHT22;62488;-37.670;-63.532;2023-04-25T00:21:27;15.50;99.90
44037;DHT22;62488;-37.670;-63.532;2023-04-25T00:23:55;15.40;99.90
44037;DHT22;62488;-37.670;-63.532;2023-04-25T00:26:22;15.40;99.90
44037;DHT22;62488;-37.670;-63.532;2023-04-25T00:28:49;15.40;99.90
44037;DHT22;62488;-37.670;-63.532;2023-04-25T00:31:18;15.30;99.90
44037;DHT22;62488;-37.670;-63.532;2023-04-25T00:33:46;15.30;99.90
44037;DHT22;62488;-37.670;-63.532;2023-04-25T00:36:14;15.40;99.90
44037;DHT22;62488;-37.670;-63.532;2023-04-25T00:38:41;15.30;99.90
44037;DHT22;62488;-37.670;-63.532;2023-04-25T00:41:09;15.30;99.90
44037;DHT22;62488;-37.670;-63.532;2023-04-25T00:43:37;15.30;99.90
44037;DHT22;62488;-37.670;-63.532;2023-04-25T00:46:04;15.30;99.90
44037;DHT22;62488;-37.670;-63.532;2023-04-25T00:48:31;15.30;99.90
44037;DHT22;62488;-37.670;-63.532;2023-04-25T00:50:59;15.20;99.90
44037;DHT22;62488;-37.670;-63.532;2023-04-25T00:53:27;15.10;99.90
44037;DHT22;62488;-37.670;-63.532;2023-04-25T00:55:55;14.90;99.90
44037;DHT22;62488;-37.670;-63.532;2023-04-25T00:58:22;14.80;99.90
44037;DHT22;62488;-37.670;-63.532;2023-04-25T01:00:51;14.70;99.90
44037;DHT22;62488;-37.670;-63.532;2023-04-25T01:03:18;14.60;99.90
44037;DHT22;62488;-37.670;-63.532;2023-04-25T01:05:49;14.50;99.90
44037;DHT22;62488;-37.670;-63.532;2023-04-25T01:08:16;14.50;99.90
44037;DHT22;62488;-37.670;-63.532;2023-04-25T01:10:43;14.50;99.90
44037;DHT22;62488;-37.670;-63.532;2023-04-25T01:13:10;14.40;99.90
44037;DHT22;62488;-37.670;-63.532;2023-04-25T01:15:37;14.40;99.90
44037;DHT22;62488;-37.670;-63.532;2023-04-25T01:18:05;14.40;99.90
44037;DHT22;62488;-37.670;-63.532;2023-04-25T01:20:33;14.40;99.90
44037;DHT22;62488;-37.670;-63.532;2023-04-25T01:23:01;14.30;99.90
44037;DHT22;62488;-37.670;-63.532;2023-04-25T01:25:30;14.20;99.90
44037;DHT22;62488;-37.670;-63.532;2023-04-25T01:27:57;14.20;99.90
44037;DHT22;62488;-37.670;-63.532;2023-04-25T01:30:26;14.10;99.90
44037;DHT22;62488;-37.670;-63.532;2023-04-25T01:32:56;14.00;99.90
44037;DHT22;62488;-37.670;-63.532;2023-04-25T01:35:24;14.00;99.90
44037;DHT22;62488;-37.670;-63.532;2023-04-25T01:37:52;14.00;99.90
44037;DHT22;62488;-37.670;-63.532;2023-04-25T01:40:21;14.00;99.90
44037;DHT22;62488;-37.670;-63.532;2023-04-25T01:42:51;14.00;99.90
44037;DHT22;62488;-37.670;-63.532;2023-04-25T01:45:19;14.00;99.90
44037;DHT22;62488;-37.670;-63.532;2023-04-25T01:47:46;14.00;99.90
44037;DHT22;62488;-37.670;-63.532;2023-04-25T01:50:18;14.00;99.90
44037;DHT22;62488;-37.670;-63.532;2023-04-25T01:52:45;14.00;99.90
44037;DHT22;62488;-37.670;-63.532;2023-04-25T01:55:12;14.00;99.90
44037;DHT22;62488;-37.670;-63.532;2023-04-25T01:57:39;14.00;99.90
44037;DHT22;62488;-37.670;-63.532;2023-04-25T02:00:07;14.00;99.90
44037;DHT22;62488;-37.670;-63.532;2023-04-25T02:02:35;13.90;99.90
44037;DHT22;62488;-37.670;-63.532;2023-04-25T02:05:02;13.90;99.90
44037;DHT22;62488;-37.670;-63.532;2023-04-25T02:07:29;13.80;99.90
44037;DHT22;62488;-37.670;-63.532;2023-04-25T02:09:56;13.80;99.90
44037;DHT22;62488;-37.670;-63.532;2023-04-25T02:12:25;13.70;99.90
44037;DHT22;62488;-37.670;-63.532;2023-04-25T02:14:52;13.70;99.90
44037;DHT22;62488;-37.670;-63.532;2023-04-25T02:17:19;13.70;99.90
44037;DHT22;62488;-37.670;-63.532;2023-04-25T02:19:47;13.70;99.90
44037;DHT22;62488;-37.670;-63.532;2023-04-25T02:22:14;13.60;99.90
44037;DHT22;62488;-37.670;-63.532;2023-04-25T02:24:42;13.60;99.90
44037;DHT22;62488;-37.670;-63.532;2023-04-25T02:27:09;13.50;99.90
44037;DHT22;62488;-37.670;-63.532;2023-04-25T02:29:36;13.50;99.90
44037;DHT22;62488;-37.670;-63.532;2023-04-25T02:32:03;13.40;99.90
44037;DHT22;62488;-37.670;-63.532;2023-04-25T02:34:30;13.40;99.90
44037;DHT22;62488;-37.670;-63.532;2023-04-25T02:36:57;13.30;99.90
44037;DHT22;62488;-37.670;-63.532;2023-04-25T02:39:24;13.30;99.90
44037;DHT22;62488;-37.670;-63.532;2023-04-25T02:41:53;13.20;99.90
44037;DHT22;62488;-37.670;-63.532;2023-04-25T02:44:22;13.10;99.90
44037;DHT22;62488;-37.670;-63.532;2023-04-25T02:46:49;13.00;99.90
44037;DHT22;62488;-37.670;-63.532;2023-04-25T02:49:16;13.00;99.90
44037;DHT22;62488;-37.670;-63.532;2023-04-25T02:51:43;13.00;99.90
44037;DHT22;62488;-37.670;-63.532;2023-04-25T02:54:10;13.00;99.90
44037;DHT22;62488;-37.670;-63.532;2023-04-25T02:56:37;12.90;99.90
44037;DHT22;62488;-37.670;-63.532;2023-04-25T02:59:06;13.00;99.90
44037;DHT22;62488;-37.670;-63.532;2023-04-25T03:01:33;13.00;99.90
44037;DHT22;62488;-37.670;-63.532;2023-04-25T03:04:00;13.00;99.90
44037;DHT22;62488;-37.670;-63.532;2023-04-25T03:06:27;12.90;99.90
44037;DHT22;62488;-37.670;-63.532;2023-04-25T03:08:55;12.80;99.90
44037;DHT22;62488;-37.670;-63.532;2023-04-25T03:11:24;12.70;99.90
44037;DHT22;62488;-37.670;-63.532;2023-04-25T03:13:52;12.60;99.90
44037;DHT22;62488;-37.670;-63.532;2023-04-25T03:16:19;12.50;99.90
44037;DHT22;62488;-37.670;-63.532;2023-04-25T03:18:46;12.50;99.90
44037;DHT22;62488;-37.670;-63.532;2023-04-25T03:21:13;12.40;99.90
44037;DHT22;62488;-37.670;-63.532;2023-04-25T03:23:40;12.40;99.90
44037;DHT22;62488;-37.670;-63.532;2023-04-25T03:26:07;12.30;99.90
44037;DHT22;62488;-37.670;-63.532;2023-04-25T03:28:36;12.20;99.90
44037;DHT22;62488;-37.670;-63.532;2023-04-25T03:31:04;12.20;99.90
44037;DHT22;62488;-37.670;-63.532;2023-04-25T03:33:31;12.20;99.90
44037;DHT22;62488;-37.670;-63.532;2023-04-25T03:35:58;12.20;99.90
44037;DHT22;62488;-37.670;-63.532;2023-04-25T03:38:26;12.20;99.90
44037;DHT22;62488;-37.670;-63.532;2023-04-25T03:40:53;12.20;99.90
44037;DHT22;62488;-37.670;-63.532;2023-04-25T03:43:20;12.20;99.90
44037;DHT22;62488;-37.670;-63.532;2023-04-25T03:45:47;12.20;99.90
44037;DHT22;62488;-37.670;-63.532;2023-04-25T03:48:15;12.20;99.90
44037;DHT22;62488;-37.670;-63.532;2023-04-25T03:50:42;12.20;99.90
44037;DHT22;62488;-37.670;-63.532;2023-04-25T03:53:09;12.20;99.90
44037;DHT22;62488;-37.670;-63.532;2023-04-25T03:55:36;12.10;99.90
44037;DHT22;62488;-37.670;-63.532;2023-04-25T03:58:03;12.10;99.90
44037;DHT22;62488;-37.670;-63.532;2023-04-25T04:00:31;12.00;99.90
44037;DHT22;62488;-37.670;-63.532;2023-04-25T04:02:58;12.00;99.90
44037;DHT22;62488;-37.670;-63.532;2023-04-25T04:05:25;11.90;99.90
44037;DHT22;62488;-37.670;-63.532;2023-04-25T04:07:52;11.90;99.90
44037;DHT22;62488;-37.670;-63.532;2023-04-25T04:10:22;11.90;99.90
44037;DHT22;62488;-37.670;-63.532;2023-04-25T04:12:49;11.90;99.90
44037;DHT22;62488;-37.670;-63.532;2023-04-25T04:15:16;11.90;99.90
44037;DHT22;62488;-37.670;-63.532;2023-04-25T04:17:43;11.80;99.90
44037;DHT22;62488;-37.670;-63.532;2023-04-25T04:20:11;11.80;99.90
44037;DHT22;62488;-37.670;-63.532;2023-04-25T04:22:38;11.80;99.90
44037;DHT22;62488;-37.670;-63.532;2023-04-25T04:25:06;11.80;99.90
44037;DHT22;62488;-37.670;-63.532;2023-04-25T04:27:33;11.80;99.90
44037;DHT22;62488;-37.670;-63.532;2023-04-25T04:30:00;11.80;99.90
44037;DHT22;62488;-37.670;-63.532;2023-04-25T04:32:29;11.80;99.90
44037;DHT22;62488;-37.670;-63.532;2023-04-25T04:34:56;11.70;99.90
44037;DHT22;62488;-37.670;-63.532;2023-04-25T04:37:24;11.70;99.90
44037;DHT22;62488;-37.670;-63.532;2023-04-25T04:39:51;11.60;99.90
44037;DHT22;62488;-37.670;-63.532;2023-04-25T04:42:18;11.60;99.90
44037;DHT22;62488;-37.670;-63.532;2023-04-25T04:44:45;11.50;99.90
44037;DHT22;62488;-37.670;-63.532;2023-04-25T04:47:13;11.50;99.90
44037;DHT22;62488;-37.670;-63.532;2023-04-25T04:49:40;11.50;99.90
44037;DHT22;62488;-37.670;-63.532;2023-04-25T04:52:07;11.50;99.90
44037;DHT22;62488;-37.670;-63.532;2023-04-25T04:54:35;11.40;99.90
44037;DHT22;62488;-37.670;-63.532;2023-04-25T04:57:05;11.40;99.90
44037;DHT22;62488;-37.670;-63.532;2023-04-25T04:59:32;11.40;99.90
44037;DHT22;62488;-37.670;-63.532;2023-04-25T05:01:59;11.40;99.90
44037;DHT22;62488;-37.670;-63.532;2023-04-25T05:04:26;11.40;99.90
44037;DHT22;62488;-37.670;-63.532;2023-04-25T05:06:53;11.40;99.90
44037;DHT22;62488;-37.670;-63.532;2023-04-25T05:09:20;11.40;99.90
44037;DHT22;62488;-37.670;-63.532;2023-04-25T05:11:52;11.40;99.90
44037;DHT22;62488;-37.670;-63.532;2023-04-25T05:14:20;11.50;99.90
44037;DHT22;62488;-37.670;-63.532;2023-04-25T05:16:48;11.50;99.90
44037;DHT22;62488;-37.670;-63.532;2023-04-25T05:19:15;11.50;99.90
44037;DHT22;62488;-37.670;-63.532;2023-04-25T05:21:42;11.50;99.90
44037;DHT22;62488;-37.670;-63.532;2023-04-25T05:24:09;11.50;99.90
44037;DHT22;62488;-37.670;-63.532;2023-04-25T05:26:37;11.50;99.90
44037;DHT22;62488;-37.670;-63.532;2023-04-25T05:29:04;11.40;99.90
44037;DHT22;62488;-37.670;-63.532;2023-04-25T05:31:32;11.40;99.90
44037;DHT22;62488;-37.670;-63.532;2023-04-25T05:33:59;11.30;99.90
44037;DHT22;62488;-37.670;-63.532;2023-04-25T05:36:27;11.30;99.90
44037;DHT22;62488;-37.670;-63.532;2023-04-25T05:38:54;11.20;99.90
44037;DHT22;62488;-37.670;-63.532;2023-04-25T05:41:21;11.20;99.90
44037;DHT22;62488;-37.670;-63.532;2023-04-25T05:43:49;11.10;99.90
44037;DHT22;62488;-37.670;-63.532;2023-04-25T05:46:16;11.10;99.90
44037;DHT22;62488;-37.670;-63.532;2023-04-25T05:48:49;11.10;99.90
44037;DHT22;62488;-37.670;-63.532;2023-04-25T05:51:16;11.00;99.90
44037;DHT22;62488;-37.670;-63.532;2023-04-25T05:53:44;11.00;99.90
44037;DHT22;62488;-37.670;-63.532;2023-04-25T05:56:12;10.90;99.90
44037;DHT22;62488;-37.670;-63.532;2023-04-25T05:58:39;10.90;99.90
44037;DHT22;62488;-37.670;-63.532;2023-04-25T06:01:06;10.90;99.90
44037;DHT22;62488;-37.670;-63.532;2023-04-25T06:03:36;10.90;99.90
44037;DHT22;62488;-37.670;-63.532;2023-04-25T06:06:04;10.80;99.90
44037;DHT22;62488;-37.670;-63.532;2023-04-25T06:08:32;10.80;99.90
44037;DHT22;62488;-37.670;-63.532;2023-04-25T06:10:59;10.80;99.90
44037;DHT22;62488;-37.670;-63.532;2023-04-25T06:13:26;10.90;99.90
44037;DHT22;62488;-37.670;-63.532;2023-04-25T06:15:53;10.90;99.90
44037;DHT22;62488;-37.670;-63.532;2023-04-25T06:18:20;10.90;99.90
44037;DHT22;62488;-37.670;-63.532;2023-04-25T06:20:47;10.90;99.90
44037;DHT22;62488;-37.670;-63.532;2023-04-25T06:23:14;10.90;99.90
44037;DHT22;62488;-37.670;-63.532;2023-04-25T06:25:42;10.90;99.90
44037;DHT22;62488;-37.670;-63.532;2023-04-25T06:28:09;10.90;99.90
44037;DHT22;62488;-37.670;-63.532;2023-04-25T06:30:36;10.90;99.90
44037;DHT22;62488;-37.670;-63.532;2023-04-25T06:33:03;10.80;99.90
44037;DHT22;62488;-37.670;-63.532;2023-04-25T06:35:31;10.80;99.90
44037;DHT22;62488;-37.670;-63.532;2023-04-25T06:37:57;10.80;99.90
44037;DHT22;62488;-37.670;-63.532;2023-04-25T06:40:25;10.70;99.90
44037;DHT22;62488;-37.670;-63.532;2023-04-25T06:42:55;10.70;99.90
44037;DHT22;62488;-37.670;-63.532;2023-04-25T06:45:23;10.60;99.90
44037;DHT22;62488;-37.670;-63.532;2023-04-25T06:47:50;10.60;99.90
44037;DHT22;62488;-37.670;-63.532;2023-04-25T06:50:17;10.70;99.90
44037;DHT22;62488;-37.670;-63.532;2023-04-25T06:52:45;10.70;99.90
44037;DHT22;62488;-37.670;-63.532;2023-04-25T06:55:12;10.70;99.90
44037;DHT22;62488;-37.670;-63.532;2023-04-25T06:57:39;10.70;99.90
44037;DHT22;62488;-37.670;-63.532;2023-04-25T07:00:07;10.60;99.90
44037;DHT22;62488;-37.670;-63.532;2023-04-25T07:02:37;10.60;99.90
44037;DHT22;62488;-37.670;-63.532;2023-04-25T07:05:09;10.60;99.90
44037;DHT22;62488;-37.670;-63.532;2023-04-25T07:07:36;10.60;99.90
44037;DHT22;62488;-37.670;-63.532;2023-04-25T07:10:04;10.50;99.90
44037;DHT22;62488;-37.670;-63.532;2023-04-25T07:12:34;10.50;99.90
44037;DHT22;62488;-37.670;-63.532;2023-04-25T07:15:05;10.50;99.90
44037;DHT22;62488;-37.670;-63.532;2023-04-25T07:17:34;10.40;99.90
44037;DHT22;62488;-37.670;-63.532;2023-04-25T07:20:02;10.40;99.90
44037;DHT22;62488;-37.670;-63.532;2023-04-25T07:22:30;10.40;99.90
44037;DHT22;62488;-37.670;-63.532;2023-04-25T07:24:57;10.40;99.90
44037;DHT22;62488;-37.670;-63.532;2023-04-25T07:27:27;10.40;99.90
44037;DHT22;62488;-37.670;-63.532;2023-04-25T07:29:55;10.50;99.90
44037;DHT22;62488;-37.670;-63.532;2023-04-25T07:32:22;10.50;99.90
44037;DHT22;62488;-37.670;-63.532;2023-04-25T07:34:49;10.50;99.90
44037;DHT22;62488;-37.670;-63.532;2023-04-25T07:37:17;10.50;99.90
44037;DHT22;62488;-37.670;-63.532;2023-04-25T07:39:45;10.50;99.90
44037;DHT22;62488;-37.670;-63.532;2023-04-25T07:42:13;10.40;99.90
44037;DHT22;62488;-37.670;-63.532;2023-04-25T07:44:43;10.40;99.90
44037;DHT22;62488;-37.670;-63.532;2023-04-25T07:47:11;10.40;99.90
44037;DHT22;62488;-37.670;-63.532;2023-04-25T07:49:41;10.30;99.90
44037;DHT22;62488;-37.670;-63.532;2023-04-25T07:52:08;10.30;99.90
44037;DHT22;62488;-37.670;-63.532;2023-04-25T07:54:37;10.20;99.90
44037;DHT22;62488;-37.670;-63.532;2023-04-25T07:57:10;10.20;99.90
44037;DHT22;62488;-37.670;-63.532;2023-04-25T07:59:51;10.10;99.90
44037;DHT22;62488;-37.670;-63.532;2023-04-25T08:02:25;10.10;99.90
44037;DHT22;62488;-37.670;-63.532;2023-04-25T08:04:55;10.10;99.90
44037;DHT22;62488;-37.670;-63.532;2023-04-25T08:07:46;10.10;99.90
44037;DHT22;62488;-37.670;-63.532;2023-04-25T08:10:18;10.10;99.90
44037;DHT22;62488;-37.670;-63.532;2023-04-25T08:12:45;10.20;99.90
44037;DHT22;62488;-37.670;-63.532;2023-04-25T08:15:21;10.20;99.90
44037;DHT22;62488;-37.670;-63.532;2023-04-25T08:18:03;10.20;99.90
44037;DHT22;62488;-37.670;-63.532;2023-04-25T08:23:50;10.20;99.90
44037;DHT22;62488;-37.670;-63.532;2023-04-25T08:26:30;10.20;99.90
44037;DHT22;62488;-37.670;-63.532;2023-04-25T08:29:03;10.20;99.90
44037;DHT22;62488;-37.670;-63.532;2023-04-25T08:31:37;10.10;99.90
44037;DHT22;62488;-37.670;-63.532;2023-04-25T08:34:45;10.00;99.90
44037;DHT22;62488;-37.670;-63.532;2023-04-25T08:37:20;10.10;99.90
44037;DHT22;62488;-37.670;-63.532;2023-04-25T08:39:51;10.20;99.90
44037;DHT22;62488;-37.670;-63.532;2023-04-25T08:42:22;10.20;99.90
44037;DHT22;62488;-37.670;-63.532;2023-04-25T08:45:11;10.10;99.90
44037;DHT22;62488;-37.670;-63.532;2023-04-25T08:47:39;10.20;99.90
44037;DHT22;62488;-37.670;-63.532;2023-04-25T08:50:08;10.10;99.90
44037;DHT22;62488;-37.670;-63.532;2023-04-25T08:52:43;10.10;99.90
44037;DHT22;62488;-37.670;-63.532;2023-04-25T08:55:30;10.10;99.90
44037;DHT22;62488;-37.670;-63.532;2023-04-25T08:58:06;10.10;99.90
44037;DHT22;62488;-37.670;-63.532;2023-04-25T09:00:39;10.10;99.90
44037;DHT22;62488;-37.670;-63.532;2023-04-25T09:06:09;10.00;99.90
44037;DHT22;62488;-37.670;-63.532;2023-04-25T09:08:43;10.10;99.90
44037;DHT22;62488;-37.670;-63.532;2023-04-25T09:11:15;10.10;99.90
44037;DHT22;62488;-37.670;-63.532;2023-04-25T09:13:43;10.10;99.90
44037;DHT22;62488;-37.670;-63.532;2023-04-25T09:16:10;10.10;99.90
44037;DHT22;62488;-37.670;-63.532;2023-04-25T09:18:37;10.10;99.90
44037;DHT22;62488;-37.670;-63.532;2023-04-25T09:21:11;10.10;99.90
44037;DHT22;62488;-37.670;-63.532;2023-04-25T09:23:49;10.10;99.90
44037;DHT22;62488;-37.670;-63.532;2023-04-25T09:26:28;10.00;99.90
44037;DHT22;62488;-37.670;-63.532;2023-04-25T09:29:06;10.00;99.90
44037;DHT22;62488;-37.670;-63.532;2023-04-25T09:31:33;9.90;99.90
44037;DHT22;62488;-37.670;-63.532;2023-04-25T09:34:15;9.90;99.90
44037;DHT22;62488;-37.670;-63.532;2023-04-25T09:36:48;9.80;99.90
44037;DHT22;62488;-37.670;-63.532;2023-04-25T09:39:20;9.70;99.90
44037;DHT22;62488;-37.670;-63.532;2023-04-25T09:41:57;9.70;99.90
44037;DHT22;62488;-37.670;-63.532;2023-04-25T09:44:40;9.60;99.90
44037;DHT22;62488;-37.670;-63.532;2023-04-25T09:47:25;9.60;99.90
44037;DHT22;62488;-37.670;-63.532;2023-04-25T09:50:27;9.50;99.90
44037;DHT22;62488;-37.670;-63.532;2023-04-25T09:53:13;9.50;99.90
44037;DHT22;62488;-37.670;-63.532;2023-04-25T09:56:10;9.40;99.90
44037;DHT22;62488;-37.670;-63.532;2023-04-25T09:58:47;9.40;99.90
44037;DHT22;62488;-37.670;-63.532;2023-04-25T10:01:16;9.40;99.90
44037;DHT22;62488;-37.670;-63.532;2023-04-25T10:03:45;9.30;99.90
44037;DHT22;62488;-37.670;-63.532;2023-04-25T10:06:48;9.30;99.90
44037;DHT22;62488;-37.670;-63.532;2023-04-25T10:22:12;9.20;99.90
44037;DHT22;62488;-37.670;-63.532;2023-04-25T10:24:38;9.30;99.90
44037;DHT22;62488;-37.670;-63.532;2023-04-25T10:27:06;9.30;99.90
44037;DHT22;62488;-37.670;-63.532;2023-04-25T10:29:33;9.40;99.90
44037;DHT22;62488;-37.670;-63.532;2023-04-25T10:32:02;9.40;99.90
44037;DHT22;62488;-37.670;-63.532;2023-04-25T10:34:40;9.40;99.90
44037;DHT22;62488;-37.670;-63.532;2023-04-25T10:37:11;9.50;99.90
44037;DHT22;62488;-37.670;-63.532;2023-04-25T10:39:40;9.50;99.90
44037;DHT22;62488;-37.670;-63.532;2023-04-25T10:42:10;9.40;99.90
44037;DHT22;62488;-37.670;-63.532;2023-04-25T10:44:38;9.40;99.90
44037;DHT22;62488;-37.670;-63.532;2023-04-25T10:47:08;9.40;99.90
44037;DHT22;62488;-37.670;-63.532;2023-04-25T10:49:43;9.40;99.90
44037;DHT22;62488;-37.670;-63.532;2023-04-25T10:54:56;9.40;99.90
44037;DHT22;62488;-37.670;-63.532;2023-04-25T10:57:42;9.40;99.90
44037;DHT22;62488;-37.670;-63.532;2023-04-25T11:00:18;9.40;99.90
44037;DHT22;62488;-37.670;-63.532;2023-04-25T11:02:52;9.30;99.90
44037;DHT22;62488;-37.670;-63.532;2023-04-25T11:05:35;9.30;99.90
44037;DHT22;62488;-37.670;-63.532;2023-04-25T11:08:03;9.30;99.90
44037;DHT22;62488;-37.670;-63.532;2023-04-25T11:10:34;9.30;99.90
44037;DHT22;62488;-37.670;-63.532;2023-04-25T11:13:04;9.40;99.90
44037;DHT22;62488;-37.670;-63.532;2023-04-25T11:15:31;9.50;99.90
44037;DHT22;62488;-37.670;-63.532;2023-04-25T11:17:58;9.60;99.90
44037;DHT22;62488;-37.670;-63.532;2023-04-25T11:20:26;9.70;99.90
44037;DHT22;62488;-37.670;-63.532;2023-04-25T11:22:58;9.80;99.90
44037;DHT22;62488;-37.670;-63.532;2023-04-25T11:25:26;9.90;99.90
44037;DHT22;62488;-37.670;-63.532;2023-04-25T11:27:55;10.10;99.90
44037;DHT22;62488;-37.670;-63.532;2023-04-25T11:30:24;10.20;99.90
44037;DHT22;62488;-37.670;-63.532;2023-04-25T11:32:52;10.40;99.90
44037;DHT22;62488;-37.670;-63.532;2023-04-25T11:35:20;10.50;99.90
44037;DHT22;62488;-37.670;-63.532;2023-04-25T11:37:49;10.70;99.90
44037;DHT22;62488;-37.670;-63.532;2023-04-25T11:40:16;10.90;99.90
44037;DHT22;62488;-37.670;-63.532;2023-04-25T11:42:47;11.10;99.90
44037;DHT22;62488;-37.670;-63.532;2023-04-25T11:45:15;11.30;99.90
44037;DHT22;62488;-37.670;-63.532;2023-04-25T11:47:42;11.40;99.90
44037;DHT22;62488;-37.670;-63.532;2023-04-25T11:50:09;11.60;99.90
44037;DHT22;62488;-37.670;-63.532;2023-04-25T11:52:41;11.70;99.90
44037;DHT22;62488;-37.670;-63.532;2023-04-25T11:55:19;11.80;99.90
44037;DHT22;62488;-37.670;-63.532;2023-04-25T11:57:50;11.90;99.90
44037;DHT22;62488;-37.670;-63.532;2023-04-25T12:00:19;12.10;99.90
44037;DHT22;62488;-37.670;-63.532;2023-04-25T12:02:54;12.40;99.90
44037;DHT22;62488;-37.670;-63.532;2023-04-25T12:05:25;12.70;99.90
44037;DHT22;62488;-37.670;-63.532;2023-04-25T12:07:55;13.00;99.90
44037;DHT22;62488;-37.670;-63.532;2023-04-25T12:10:23;13.10;99.90
44037;DHT22;62488;-37.670;-63.532;2023-04-25T12:12:51;13.10;99.90
44037;DHT22;62488;-37.670;-63.532;2023-04-25T12:15:26;13.40;99.90
44037;DHT22;62488;-37.670;-63.532;2023-04-25T12:17:54;13.60;99.90
44037;DHT22;62488;-37.670;-63.532;2023-04-25T12:20:24;13.80;99.90
44037;DHT22;62488;-37.670;-63.532;2023-04-25T12:22:52;13.80;99.90
44037;DHT22;62488;-37.670;-63.532;2023-04-25T12:25:42;13.90;99.90
44037;DHT22;62488;-37.670;-63.532;2023-04-25T12:28:16;14.10;99.90
44037;DHT22;62488;-37.670;-63.532;2023-04-25T12:33:23;14.40;99.90
44037;DHT22;62488;-37.670;-63.532;2023-04-25T12:35:50;14.60;99.90
44037;DHT22;62488;-37.670;-63.532;2023-04-25T12:38:25;14.90;99.90
44037;DHT22;62488;-37.670;-63.532;2023-04-25T12:40:53;15.00;99.90
44037;DHT22;62488;-37.670;-63.532;2023-04-25T12:43:20;15.10;99.90
44037;DHT22;62488;-37.670;-63.532;2023-04-25T12:45:52;15.10;99.90
44037;DHT22;62488;-37.670;-63.532;2023-04-25T12:48:20;15.20;99.90
44037;DHT22;62488;-37.670;-63.532;2023-04-25T12:50:48;15.40;99.90
44037;DHT22;62488;-37.670;-63.532;2023-04-25T12:53:16;15.50;99.90
44037;DHT22;62488;-37.670;-63.532;2023-04-25T12:55:43;15.80;99.90
44037;DHT22;62488;-37.670;-63.532;2023-04-25T12:58:16;16.30;99.90
44037;DHT22;62488;-37.670;-63.532;2023-04-25T13:00:44;16.80;99.90
44037;DHT22;62488;-37.670;-63.532;2023-04-25T13:03:11;16.60;99.90
44037;DHT22;62488;-37.670;-63.532;2023-04-25T13:05:39;16.80;99.90
44037;DHT22;62488;-37.670;-63.532;2023-04-25T13:08:06;17.10;99.90
44037;DHT22;62488;-37.670;-63.532;2023-04-25T13:10:33;17.20;99.90
44037;DHT22;62488;-37.670;-63.532;2023-04-25T13:13:02;17.40;99.90
44037;DHT22;62488;-37.670;-63.532;2023-04-25T13:15:29;17.60;99.90
44037;DHT22;62488;-37.670;-63.532;2023-04-25T13:17:56;17.60;99.90
44037;DHT22;62488;-37.670;-63.532;2023-04-25T13:20:23;17.80;99.90
44037;DHT22;62488;-37.670;-63.532;2023-04-25T13:22:51;18.10;99.90
44037;DHT22;62488;-37.670;-63.532;2023-04-25T13:25:17;17.80;99.90
44037;DHT22;62488;-37.670;-63.532;2023-04-25T13:27:45;17.70;99.90
44037;DHT22;62488;-37.670;-63.532;2023-04-25T13:30:13;18.20;99.90
44037;DHT22;62488;-37.670;-63.532;2023-04-25T13:32:40;18.20;99.90
44037;DHT22;62488;-37.670;-63.532;2023-04-25T13:35:10;18.30;99.90
44037;DHT22;62488;-37.670;-63.532;2023-04-25T13:37:39;18.50;99.90
44037;DHT22;62488;-37.670;-63.532;2023-04-25T13:40:10;19.00;99.90
44037;DHT22;62488;-37.670;-63.532;2023-04-25T13:42:38;18.90;99.90
44037;DHT22;62488;-37.670;-63.532;2023-04-25T13:45:06;19.00;99.90
44037;DHT22;62488;-37.670;-63.532;2023-04-25T13:47:34;19.30;99.90
44037;DHT22;62488;-37.670;-63.532;2023-04-25T13:50:01;19.40;99.90
44037;DHT22;62488;-37.670;-63.532;2023-04-25T13:52:29;19.70;99.90
44037;DHT22;62488;-37.670;-63.532;2023-04-25T13:54:57;20.50;99.90
44037;DHT22;62488;-37.670;-63.532;2023-04-25T13:57:25;20.60;99.90
44037;DHT22;62488;-37.670;-63.532;2023-04-25T13:59:52;21.10;99.90
44037;DHT22;62488;-37.670;-63.532;2023-04-25T14:02:22;21.00;99.90
44037;DHT22;62488;-37.670;-63.532;2023-04-25T14:04:56;21.30;99.90
44037;DHT22;62488;-37.670;-63.532;2023-04-25T14:07:23;21.70;99.90
44037;DHT22;62488;-37.670;-63.532;2023-04-25T14:09:50;21.90;99.90
44037;DHT22;62488;-37.670;-63.532;2023-04-25T14:12:17;21.90;99.90
44037;DHT22;62488;-37.670;-63.532;2023-04-25T14:14:44;22.20;99.90
44037;DHT22;62488;-37.670;-63.532;2023-04-25T14:17:12;22.50;99.90
44037;DHT22;62488;-37.670;-63.532;2023-04-25T14:19:39;22.20;99.90
44037;DHT22;62488;-37.670;-63.532;2023-04-25T14:22:09;22.80;99.90
44037;DHT22;62488;-37.670;-63.532;2023-04-25T14:24:36;22.60;99.90
44037;DHT22;62488;-37.670;-63.532;2023-04-25T14:27:04;22.90;99.90
44037;DHT22;62488;-37.670;-63.532;2023-04-25T14:29:31;22.90;99.90
44037;DHT22;62488;-37.670;-63.532;2023-04-25T14:31:58;22.70;99.90
44037;DHT22;62488;-37.670;-63.532;2023-04-25T14:34:26;22.60;99.90
44037;DHT22;62488;-37.670;-63.532;2023-04-25T14:36:53;23.10;99.90
44037;DHT22;62488;-37.670;-63.532;2023-04-25T14:39:20;23.50;99.90
44037;DHT22;62488;-37.670;-63.532;2023-04-25T14:41:47;23.60;99.90
44037;DHT22;62488;-37.670;-63.532;2023-04-25T14:44:14;23.70;99.90
44037;DHT22;62488;-37.670;-63.532;2023-04-25T14:46:42;23.70;99.90
44037;DHT22;62488;-37.670;-63.532;2023-04-25T14:49:09;24.20;99.90
44037;DHT22;62488;-37.670;-63.532;2023-04-25T14:51:36;24.30;99.40
44037;DHT22;62488;-37.670;-63.532;2023-04-25T14:54:03;24.60;99.10
44037;DHT22;62488;-37.670;-63.532;2023-04-25T14:56:30;24.60;98.50
44037;DHT22;62488;-37.670;-63.532;2023-04-25T14:58:57;24.90;98.20
44037;DHT22;62488;-37.670;-63.532;2023-04-25T15:01:24;24.70;98.50
44037;DHT22;62488;-37.670;-63.532;2023-04-25T15:03:52;24.90;98.60
44037;DHT22;62488;-37.670;-63.532;2023-04-25T15:06:19;24.80;98.40
44037;DHT22;62488;-37.670;-63.532;2023-04-25T15:08:46;24.60;98.40
44037;DHT22;62488;-37.670;-63.532;2023-04-25T15:11:14;24.60;98.70
44037;DHT22;62488;-37.670;-63.532;2023-04-25T15:13:41;24.60;97.60
44037;DHT22;62488;-37.670;-63.532;2023-04-25T15:16:08;24.70;97.70
44037;DHT22;62488;-37.670;-63.532;2023-04-25T15:18:35;24.90;97.70
44037;DHT22;62488;-37.670;-63.532;2023-04-25T15:21:02;25.00;97.50
44037;DHT22;62488;-37.670;-63.532;2023-04-25T15:23:29;25.10;96.30
44037;DHT22;62488;-37.670;-63.532;2023-04-25T15:25:56;25.20;96.70
44037;DHT22;62488;-37.670;-63.532;2023-04-25T15:28:24;25.50;96.60